Time;durP1;ratioP1;P1;durP2;ratioP2;P2;SDS_P1;SDS_P2;PMS_P1;PMS_P2;Temp;Humidity;BMP_temperature;BMP_pressure;BME280_temperature;BME280_humidity;BME280_pressure;Samples;Min_cycle;Max_cycle;Signal;HPM_P1;HPM_P2
2021/01/22 00:01:37;;;;;;;6.80;2.90;;;;;;;;;;5013016;28;20485;-71
2021/01/22 00:04:03;;;;;;;5.10;1.93;;;;;;;;;;5012971;28;20437;-71
2021/01/22 00:06:29;;;;;;;4.03;1.90;;;;;;;;;;5028083;28;20432;-71
2021/01/22 00:08:55;;;;;;;3.20;1.70;;;;;;;;;;5015155;28;20813;-71
2021/01/22 00:11:21;;;;;;;1.80;1.17;;;;;;;;;;5014192;28;20425;-71
2021/01/22 00:13:47;;;;;;;2.40;1.20;;;;;;;;;;5013276;28;20436;-70
2021/01/22 00:16:14;;;;;;;4.20;1.60;;;;;;;;;;5013977;28;20401;-70
2021/01/22 00:18:40;;;;;;;2.57;1.20;;;;;;;;;;4997780;28;20442;-71
2021/01/22 00:21:05;;;;;;;2.83;1.60;;;;;;;;;;4994401;28;20408;-70
2021/01/22 00:23:32;;;;;;;2.57;1.67;;;;;;;;;;5007739;28;20432;-71
2021/01/22 00:25:57;;;;;;;2.77;1.50;;;;;;;;;;5012934;28;20544;-71
2021/01/22 00:28:23;;;;;;;7.57;1.93;;;;;;;;;;5012875;28;20465;-70
2021/01/22 00:30:49;;;;;;;3.30;1.80;;;;;;;;;;5013802;28;20406;-71
2021/01/22 00:33:16;;;;;;;3.43;1.77;;;;;;;;;;5013251;28;20433;-70
2021/01/22 00:35:42;;;;;;;2.60;1.53;;;;;;;;;;5014044;28;20405;-70
2021/01/22 00:38:07;;;;;;;2.10;1.50;;;;;;;;;;5012708;28;21018;-71
2021/01/22 00:40:34;;;;;;;3.40;1.80;;;;;;;;;;5012801;28;20540;-71
2021/01/22 00:43:01;;;;;;;2.50;1.33;;;;;;;;;;5012784;28;20430;-71
2021/01/22 00:45:27;;;;;;;2.27;1.57;;;;;;;;;;5013571;28;20501;-71
2021/01/22 00:47:53;;;;;;;2.20;1.33;;;;;;;;;;5012663;28;20468;-70
2021/01/22 00:50:19;;;;;;;3.10;1.90;;;;;;;;;;5013472;28;20892;-71
2021/01/22 00:52:45;;;;;;;5.10;1.30;;;;;;;;;;5013124;28;20522;-71
2021/01/22 00:55:11;;;;;;;4.83;2.10;;;;;;;;;;5014394;28;20418;-71
2021/01/22 00:57:37;;;;;;;2.67;1.40;;;;;;;;;;5012771;28;20453;-70
2021/01/22 01:00:04;;;;;;;3.00;1.70;;;;;;;;;;5014888;28;20425;-71
2021/01/22 01:02:30;;;;;;;3.10;1.93;;;;;;;;;;5013890;28;20439;-71
2021/01/22 01:04:56;;;;;;;4.23;1.70;;;;;;;;;;5016013;28;20451;-71
2021/01/22 01:07:22;;;;;;;4.90;1.80;;;;;;;;;;5028800;28;20521;-70
2021/01/22 01:09:48;;;;;;;4.03;2.10;;;;;;;;;;5013312;28;20908;-70
2021/01/22 01:12:14;;;;;;;5.03;2.10;;;;;;;;;;5012577;28;20407;-70
2021/01/22 01:14:40;;;;;;;3.10;1.60;;;;;;;;;;5013493;28;20401;-70
2021/01/22 01:17:06;;;;;;;2.80;1.63;;;;;;;;;;5012604;28;20554;-70
2021/01/22 01:19:32;;;;;;;2.80;1.70;;;;;;;;;;5013070;28;20512;-70
2021/01/22 01:21:58;;;;;;;3.50;1.50;;;;;;;;;;5013200;28;20456;-70
2021/01/22 01:24:24;;;;;;;4.93;1.90;;;;;;;;;;5012493;28;20431;-70
2021/01/22 01:26:50;;;;;;;2.27;1.60;;;;;;;;;;5013323;28;20426;-70
2021/01/22 01:29:16;;;;;;;2.83;1.87;;;;;;;;;;5012265;28;20997;-71
2021/01/22 01:31:42;;;;;;;3.70;2.27;;;;;;;;;;5011317;28;20488;-70
2021/01/22 01:34:08;;;;;;;4.90;1.83;;;;;;;;;;5012206;28;20470;-71
2021/01/22 01:36:34;;;;;;;4.00;2.10;;;;;;;;;;5013128;28;20790;-71
2021/01/22 01:39:00;;;;;;;3.90;1.90;;;;;;;;;;5012171;28;20433;-71
2021/01/22 01:41:26;;;;;;;4.50;2.30;;;;;;;;;;5012877;28;20425;-71
2021/01/22 01:43:52;;;;;;;5.70;2.40;;;;;;;;;;5012072;28;20910;-71
2021/01/22 01:46:18;;;;;;;3.17;2.03;;;;;;;;;;5012733;28;20460;-71
2021/01/22 01:48:45;;;;;;;5.93;2.53;;;;;;;;;;5012128;28;20452;-70
2021/01/22 01:51:11;;;;;;;8.10;3.50;;;;;;;;;;5013342;28;20444;-71
2021/01/22 01:53:37;;;;;;;7.20;3.20;;;;;;;;;;5012134;28;20423;-71
2021/01/22 01:56:03;;;;;;;5.40;2.90;;;;;;;;;;5015480;28;20420;-71
2021/01/22 01:58:29;;;;;;;5.80;2.70;;;;;;;;;;5015759;28;20428;-71
2021/01/22 02:00:55;;;;;;;7.10;3.30;;;;;;;;;;5014380;28;20494;-71
2021/01/22 02:03:21;;;;;;;3.70;2.23;;;;;;;;;;5014932;28;20444;-70
2021/01/22 02:05:48;;;;;;;4.40;2.40;;;;;;;;;;5017940;28;20449;-71
2021/01/22 02:08:14;;;;;;;4.00;2.60;;;;;;;;;;5015494;28;20551;-71
2021/01/22 02:10:41;;;;;;;4.77;2.30;;;;;;;;;;5016429;28;20405;-71
2021/01/22 02:13:07;;;;;;;4.80;2.63;;;;;;;;;;5015475;28;20513;-71
2021/01/22 02:15:33;;;;;;;6.63;3.13;;;;;;;;;;5016307;28;20456;-71
2021/01/22 02:17:59;;;;;;;5.87;1.90;;;;;;;;;;5015542;28;20460;-71
2021/01/22 02:20:32;;;;;;;4.50;2.40;;;;;;;;;;5014879;28;20505;-71
2021/01/22 02:22:58;;;;;;;3.77;1.77;;;;;;;;;;5015491;28;20426;-71
2021/01/22 02:25:42;;;;;;;2.80;2.03;;;;;;;;;;5014336;28;20436;-70
2021/01/22 02:28:10;;;;;;;4.03;2.13;;;;;;;;;;5013856;28;20477;-70
2021/01/22 02:30:36;;;;;;;3.10;1.33;;;;;;;;;;4996664;28;20420;-71
2021/01/22 02:33:05;;;;;;;3.53;1.90;;;;;;;;;;5001234;28;20924;-71
2021/01/22 02:35:32;;;;;;;2.70;1.90;;;;;;;;;;5015495;28;20866;-71
2021/01/22 02:37:58;;;;;;;3.13;2.23;;;;;;;;;;5015771;28;20415;-71
2021/01/22 02:40:24;;;;;;;3.33;1.70;;;;;;;;;;5015014;28;20465;-71
2021/01/22 02:42:51;;;;;;;3.40;1.70;;;;;;;;;;5015903;28;20902;-71
2021/01/22 02:45:17;;;;;;;3.10;2.20;;;;;;;;;;5015026;28;20476;-71
2021/01/22 02:47:47;;;;;;;4.97;2.30;;;;;;;;;;5015511;28;20499;-71
2021/01/22 02:50:17;;;;;;;2.97;1.70;;;;;;;;;;4999238;28;20454;-71
2021/01/22 02:52:43;;;;;;;3.60;2.33;;;;;;;;;;4996377;28;20818;-71
2021/01/22 02:55:10;;;;;;;2.67;1.70;;;;;;;;;;5007497;28;20875;-71
2021/01/22 02:57:57;;;;;;;4.83;2.37;;;;;;;;;;5012543;28;20499;-71
2021/01/22 03:00:28;;;;;;;4.67;2.57;;;;;;;;;;5014636;28;20497;-70
2021/01/22 03:02:59;;;;;;;3.00;2.17;;;;;;;;;;5014939;28;20807;-71
2021/01/22 03:05:26;;;;;;;2.60;1.67;;;;;;;;;;5019798;28;20432;-70
2021/01/22 03:07:56;;;;;;;3.20;2.20;;;;;;;;;;5033918;28;20475;-70
2021/01/22 03:10:22;;;;;;;3.00;2.00;;;;;;;;;;5021924;28;20430;-70
2021/01/22 03:12:50;;;;;;;2.73;2.17;;;;;;;;;;5013434;28;20439;-70
2021/01/22 03:15:16;;;;;;;4.53;2.30;;;;;;;;;;5014562;28;20443;-70
2021/01/22 03:17:43;;;;;;;3.83;1.77;;;;;;;;;;5015319;28;20521;-70
2021/01/22 03:20:13;;;;;;;3.40;1.70;;;;;;;;;;5014232;28;20575;-70
2021/01/22 03:22:39;;;;;;;3.90;2.20;;;;;;;;;;5015181;28;20477;-70
2021/01/22 03:25:05;;;;;;;3.03;1.93;;;;;;;;;;5014507;28;20441;-70
2021/01/22 03:27:31;;;;;;;2.10;1.33;;;;;;;;;;5014849;28;20567;-70
2021/01/22 03:29:57;;;;;;;3.03;1.73;;;;;;;;;;5014285;28;20513;-70
2021/01/22 03:32:23;;;;;;;2.47;1.33;;;;;;;;;;5014940;28;20890;-71
2021/01/22 03:34:49;;;;;;;2.10;1.57;;;;;;;;;;5014169;28;20433;-71
2021/01/22 03:37:15;;;;;;;2.60;1.70;;;;;;;;;;5014748;28;20780;-70
2021/01/22 03:39:41;;;;;;;2.40;1.60;;;;;;;;;;5013888;28;20429;-70
2021/01/22 03:42:07;;;;;;;2.10;1.47;;;;;;;;;;5014751;28;20915;-70
2021/01/22 03:44:33;;;;;;;2.83;1.73;;;;;;;;;;5012963;28;20513;-70
2021/01/22 03:46:59;;;;;;;2.97;1.50;;;;;;;;;;5014276;28;20427;-70
2021/01/22 03:49:25;;;;;;;1.67;1.20;;;;;;;;;;5013771;28;20461;-70
2021/01/22 03:51:51;;;;;;;3.10;1.70;;;;;;;;;;5014500;28;20416;-70
2021/01/22 03:54:17;;;;;;;3.90;1.30;;;;;;;;;;5013808;28;20439;-70
2021/01/22 03:56:43;;;;;;;2.30;1.40;;;;;;;;;;5014356;28;20426;-70
2021/01/22 03:59:09;;;;;;;2.50;1.33;;;;;;;;;;5014010;28;20500;-70
2021/01/22 04:01:35;;;;;;;3.23;1.57;;;;;;;;;;5013289;28;20475;-70
2021/01/22 04:04:01;;;;;;;2.20;1.30;;;;;;;;;;5012139;28;20504;-70
2021/01/22 04:06:27;;;;;;;1.80;1.43;;;;;;;;;;5026872;28;20946;-70
2021/01/22 04:08:53;;;;;;;2.97;1.90;;;;;;;;;;5034184;28;20483;-71
2021/01/22 04:11:21;;;;;;;2.43;1.73;;;;;;;;;;5014969;28;20430;-70
2021/01/22 04:13:48;;;;;;;4.30;1.17;;;;;;;;;;5014172;28;20411;-70
2021/01/22 04:16:14;;;;;;;3.00;1.77;;;;;;;;;;5013173;28;20430;-70
2021/01/22 04:18:40;;;;;;;2.23;1.20;;;;;;;;;;5011922;28;20441;-70
2021/01/22 04:21:07;;;;;;;2.70;1.60;;;;;;;;;;5012698;28;20436;-70
2021/01/22 04:23:33;;;;;;;2.93;1.60;;;;;;;;;;5014062;28;20412;-70
2021/01/22 04:25:59;;;;;;;2.60;1.60;;;;;;;;;;5013737;28;20442;-70
2021/01/22 04:28:25;;;;;;;2.13;1.17;;;;;;;;;;5013954;28;20578;-70
2021/01/22 04:30:51;;;;;;;2.33;1.30;;;;;;;;;;5013066;28;20516;-70
2021/01/22 04:33:17;;;;;;;2.17;1.17;;;;;;;;;;5013880;28;20875;-70
2021/01/22 04:35:43;;;;;;;1.97;1.37;;;;;;;;;;5012191;28;20441;-70
2021/01/22 04:38:09;;;;;;;2.47;1.57;;;;;;;;;;5013661;28;20491;-70
2021/01/22 04:40:35;;;;;;;5.57;1.40;;;;;;;;;;5013068;28;20433;-70
2021/01/22 04:43:01;;;;;;;2.77;1.10;;;;;;;;;;5012486;28;20468;-70
2021/01/22 04:45:27;;;;;;;4.03;1.70;;;;;;;;;;5012754;28;20446;-70
2021/01/22 04:47:53;;;;;;;4.33;1.57;;;;;;;;;;5013588;28;20469;-70
2021/01/22 04:50:19;;;;;;;1.80;1.20;;;;;;;;;;5012905;28;20785;-70
2021/01/22 04:52:46;;;;;;;1.80;1.40;;;;;;;;;;5012711;28;20534;-70
2021/01/22 04:55:14;;;;;;;3.20;1.30;;;;;;;;;;5012634;28;20430;-70
2021/01/22 04:57:44;;;;;;;4.00;1.63;;;;;;;;;;5013334;28;20466;-70
2021/01/22 05:00:11;;;;;;;3.00;1.60;;;;;;;;;;5011972;28;20491;-70
2021/01/22 05:02:37;;;;;;;2.77;1.43;;;;;;;;;;5014102;28;20405;-70
2021/01/22 05:05:03;;;;;;;2.07;1.30;;;;;;;;;;5013230;28;20780;-71
2021/01/22 05:07:29;;;;;;;2.30;1.63;;;;;;;;;;5012971;28;20602;-71
2021/01/22 05:09:56;;;;;;;5.90;2.13;;;;;;;;;;5011914;28;20429;-71
2021/01/22 05:12:22;;;;;;;4.87;1.90;;;;;;;;;;5013726;28;20485;-71
2021/01/22 05:14:48;;;;;;;2.97;1.60;;;;;;;;;;5020820;28;20436;-71
2021/01/22 05:17:14;;;;;;;2.10;1.10;;;;;;;;;;5012819;28;20435;-70
2021/01/22 05:19:44;;;;;;;2.87;1.30;;;;;;;;;;5013232;28;20491;-70
2021/01/22 05:22:18;;;;;;;4.10;1.30;;;;;;;;;;5013000;28;20418;-70
2021/01/22 05:24:45;;;;;;;2.27;1.30;;;;;;;;;;5013308;28;20768;-70
2021/01/22 05:27:12;;;;;;;2.03;1.20;;;;;;;;;;5023120;28;20453;-70
2021/01/22 05:29:39;;;;;;;3.00;1.53;;;;;;;;;;5033444;28;20445;-71
2021/01/22 05:32:24;;;;;;;2.23;1.13;;;;;;;;;;5016269;28;20858;-70
2021/01/22 05:34:50;;;;;;;3.50;1.47;;;;;;;;;;5017148;28;20414;-71
2021/01/22 05:37:16;;;;;;;2.23;1.23;;;;;;;;;;5016725;28;20452;-71
2021/01/22 05:39:42;;;;;;;2.47;1.30;;;;;;;;;;5016936;28;20402;-71
2021/01/22 05:42:08;;;;;;;3.57;1.67;;;;;;;;;;5015992;28;20924;-71
2021/01/22 05:44:34;;;;;;;4.07;1.73;;;;;;;;;;5016883;28;20418;-71
2021/01/22 05:47:08;;;;;;;2.40;1.40;;;;;;;;;;5015089;28;20448;-71
2021/01/22 05:49:47;;;;;;;4.20;2.20;;;;;;;;;;5017037;28;20962;-71
2021/01/22 05:52:20;;;;;;;1.80;1.50;;;;;;;;;;5016455;28;20481;-71
2021/01/22 05:54:46;;;;;;;2.00;1.63;;;;;;;;;;5016996;28;20392;-71
2021/01/22 05:57:12;;;;;;;1.93;1.27;;;;;;;;;;5016075;28;20446;-71
2021/01/22 05:59:38;;;;;;;3.40;1.57;;;;;;;;;;5017213;28;20778;-71
2021/01/22 06:02:23;;;;;;;4.77;1.93;;;;;;;;;;5017302;28;20440;-71
2021/01/22 06:05:06;;;;;;;3.20;1.73;;;;;;;;;;5037739;28;20482;-71
2021/01/22 06:07:32;;;;;;;2.40;1.50;;;;;;;;;;5020840;28;20460;-71
2021/01/22 06:09:58;;;;;;;2.80;1.77;;;;;;;;;;5018202;28;20437;-71
2021/01/22 06:12:24;;;;;;;2.43;1.57;;;;;;;;;;5016144;28;20440;-71
2021/01/22 06:14:50;;;;;;;1.93;1.30;;;;;;;;;;5015854;28;20853;-71
2021/01/22 06:17:17;;;;;;;2.93;1.40;;;;;;;;;;5014259;28;20473;-71
2021/01/22 06:19:43;;;;;;;2.70;1.20;;;;;;;;;;5016353;28;20401;-70
2021/01/22 06:22:21;;;;;;;2.80;1.63;;;;;;;;;;5015445;28;20530;-71
2021/01/22 06:24:48;;;;;;;4.00;1.40;;;;;;;;;;5016166;28;20401;-71
2021/01/22 06:27:14;;;;;;;6.20;1.67;;;;;;;;;;5015238;28;20450;-71
2021/01/22 06:29:42;;;;;;;2.87;1.87;;;;;;;;;;5016215;28;20451;-70
2021/01/22 06:32:08;;;;;;;2.10;1.30;;;;;;;;;;5015170;28;20427;-71
2021/01/22 06:34:36;;;;;;;2.47;1.40;;;;;;;;;;5015999;28;20444;-71
2021/01/22 06:37:03;;;;;;;7.27;2.43;;;;;;;;;;5014104;28;20448;-71
2021/01/22 06:39:30;;;;;;;6.97;2.37;;;;;;;;;;5015874;28;20437;-70
2021/01/22 06:42:00;;;;;;;6.70;2.30;;;;;;;;;;5014996;28;20452;-70
2021/01/22 06:44:26;;;;;;;3.17;1.60;;;;;;;;;;5016003;28;20410;-70
2021/01/22 06:46:52;;;;;;;2.80;1.63;;;;;;;;;;5014847;28;20752;-71
2021/01/22 06:49:30;;;;;;;3.77;1.73;;;;;;;;;;5014801;28;20481;-70
2021/01/22 06:52:09;;;;;;;4.70;2.77;;;;;;;;;;5013831;28;20754;-71
2021/01/22 06:54:55;;;;;;;4.63;2.70;;;;;;;;;;4996128;28;20398;-71
2021/01/22 06:57:21;;;;;;;5.57;2.00;;;;;;;;;;4998429;28;20934;-70
2021/01/22 06:59:47;;;;;;;4.93;2.43;;;;;;;;;;5015605;28;20453;-71
2021/01/22 07:02:31;;;;;;;4.47;2.63;;;;;;;;;;5014454;28;20411;-71
2021/01/22 07:04:57;;;;;;;4.50;1.90;;;;;;;;;;4995796;28;20405;-71
2021/01/22 07:07:42;;;;;;;4.37;2.20;;;;;;;;;;4998244;28;20460;-70
2021/01/22 07:10:08;;;;;;;5.20;2.60;;;;;;;;;;5015518;28;20442;-71
2021/01/22 07:12:38;;;;;;;4.90;2.60;;;;;;;;;;5015014;28;20454;-70
2021/01/22 07:15:24;;;;;;;3.23;1.50;;;;;;;;;;5013188;28;20774;-71
2021/01/22 07:17:57;;;;;;;5.80;2.30;;;;;;;;;;5014388;28;20536;-70
2021/01/22 07:20:23;;;;;;;6.70;2.40;;;;;;;;;;5015761;28;20429;-70
2021/01/22 07:22:54;;;;;;;5.73;2.20;;;;;;;;;;5014445;28;20437;-71
2021/01/22 07:25:35;;;;;;;3.80;1.97;;;;;;;;;;5015358;28;20409;-70
2021/01/22 07:28:24;;;;;;;6.90;3.20;;;;;;;;;;5012785;28;20463;-71
2021/01/22 07:30:50;;;;;;;2.57;1.70;;;;;;;;;;5004159;28;20537;-69
2021/01/22 07:33:28;;;;;;;6.23;1.80;;;;;;;;;;5003036;28;20425;-69
2021/01/22 07:36:07;;;;;;;2.47;1.37;;;;;;;;;;5012953;28;20413;-71
2021/01/22 07:38:33;;;;;;;5.87;2.60;;;;;;;;;;5013899;28;20507;-68
2021/01/22 07:40:59;;;;;;;5.33;2.23;;;;;;;;;;5012580;28;20560;-69
2021/01/22 07:43:26;;;;;;;4.70;2.17;;;;;;;;;;5014278;28;20424;-68
2021/01/22 07:46:04;;;;;;;4.00;2.30;;;;;;;;;;5014041;28;20423;-70
2021/01/22 07:48:30;;;;;;;4.97;1.77;;;;;;;;;;5014330;28;20441;-70
2021/01/22 07:50:56;;;;;;;4.90;2.17;;;;;;;;;;5014200;28;20418;-68
2021/01/22 07:53:22;;;;;;;3.53;1.90;;;;;;;;;;5012669;28;20573;-69
2021/01/22 07:55:54;;;;;;;3.30;2.20;;;;;;;;;;5014027;28;20456;-67
2021/01/22 07:58:20;;;;;;;6.30;2.30;;;;;;;;;;5012903;28;20772;-67
2021/01/22 08:00:47;;;;;;;12.77;3.10;;;;;;;;;;5013735;28;20466;-69
2021/01/22 08:03:13;;;;;;;3.83;2.60;;;;;;;;;;5012272;28;20430;-69
2021/01/22 08:05:40;;;;;;;4.30;2.07;;;;;;;;;;5014492;28;20508;-68
2021/01/22 08:08:25;;;;;;;2.40;1.70;;;;;;;;;;5012714;28;20456;-69
2021/01/22 08:10:51;;;;;;;3.00;2.23;;;;;;;;;;5013405;28;20924;-68
2021/01/22 08:13:17;;;;;;;3.53;1.90;;;;;;;;;;5010627;28;20428;-68
2021/01/22 08:15:44;;;;;;;4.40;2.50;;;;;;;;;;5009509;28;20179;-69
2021/01/22 08:18:13;;;;;;;4.30;2.00;;;;;;;;;;5008380;28;20463;-70
2021/01/22 08:20:39;;;;;;;2.00;1.50;;;;;;;;;;5004477;28;20468;-68
2021/01/22 08:23:05;;;;;;;4.50;2.10;;;;;;;;;;5005971;28;20423;-68
2021/01/22 08:25:32;;;;;;;3.73;2.23;;;;;;;;;;5007416;28;20672;-67
2021/01/22 08:27:59;;;;;;;6.07;2.63;;;;;;;;;;5003559;28;20471;-69
2021/01/22 08:30:26;;;;;;;5.07;2.23;;;;;;;;;;5015170;28;20815;-70
2021/01/22 08:32:56;;;;;;;4.22;2.03;;;;;;;;;;5009745;28;20942;-71
2021/01/22 08:35:23;;;;;;;3.43;1.60;;;;;;;;;;5008068;28;20246;-71
2021/01/22 08:37:50;;;;;;;4.90;2.17;;;;;;;;;;5010034;28;20824;-72
2021/01/22 08:40:16;;;;;;;4.30;1.90;;;;;;;;;;5012075;28;20442;-72
2021/01/22 08:42:56;;;;;;;3.50;1.47;;;;;;;;;;5011393;28;20434;-75
2021/01/22 08:45:22;;;;;;;2.37;1.63;;;;;;;;;;5012725;28;20479;-67
2021/01/22 08:47:48;;;;;;;6.27;2.40;;;;;;;;;;5011418;28;20619;-69
2021/01/22 08:50:17;;;;;;;7.37;2.00;;;;;;;;;;5010607;28;20459;-74
2021/01/22 08:52:43;;;;;;;6.40;1.97;;;;;;;;;;5015340;28;20433;-77
2021/01/22 08:55:19;;;;;;;10.80;1.87;;;;;;;;;;5015612;28;20447;-78
2021/01/22 08:58:02;;;;;;;4.80;2.60;;;;;;;;;;5010035;28;20516;-70
2021/01/22 09:00:28;;;;;;;9.03;2.30;;;;;;;;;;5008215;28;20510;-68
2021/01/22 09:02:54;;;;;;;7.63;2.40;;;;;;;;;;5012325;28;20788;-66
2021/01/22 09:05:20;;;;;;;3.80;1.80;;;;;;;;;;5009322;28;20422;-69
2021/01/22 09:07:47;;;;;;;3.80;2.13;;;;;;;;;;5011475;28;20226;-68
2021/01/22 09:10:22;;;;;;;2.87;1.83;;;;;;;;;;5013162;28;20395;-69
2021/01/22 09:12:48;;;;;;;4.73;1.70;;;;;;;;;;5012323;28;20395;-70
2021/01/22 09:15:15;;;;;;;2.93;1.70;;;;;;;;;;5013012;28;20502;-70
2021/01/22 09:17:50;;;;;;;4.32;1.67;;;;;;;;;;5010458;28;20438;-69
2021/01/22 09:20:16;;;;;;;6.27;2.27;;;;;;;;;;4992839;28;20280;-66
2021/01/22 09:22:43;;;;;;;4.00;1.90;;;;;;;;;;5006464;28;20441;-67
2021/01/22 09:25:11;;;;;;;6.20;1.67;;;;;;;;;;5011562;28;20422;-67
2021/01/22 09:27:38;;;;;;;8.60;3.30;;;;;;;;;;5011473;28;20450;-67
2021/01/22 09:30:05;;;;;;;9.83;2.20;;;;;;;;;;5011842;28;20481;-69
2021/01/22 09:32:31;;;;;;;6.30;1.30;;;;;;;;;;5011717;28;20419;-70
2021/01/22 09:34:57;;;;;;;4.83;1.80;;;;;;;;;;5012852;28;20406;-68
2021/01/22 09:37:23;;;;;;;9.75;2.10;;;;;;;;;;5010313;28;20845;-70
2021/01/22 09:39:49;;;;;;;4.07;1.37;;;;;;;;;;5012420;28;20670;-69
2021/01/22 09:42:16;;;;;;;3.53;1.47;;;;;;;;;;5011823;28;20432;-71
2021/01/22 09:44:42;;;;;;;3.00;1.70;;;;;;;;;;5012728;28;20775;-69
2021/01/22 09:47:08;;;;;;;5.33;1.70;;;;;;;;;;5011500;28;20451;-71
2021/01/22 09:49:34;;;;;;;5.13;1.57;;;;;;;;;;5012472;28;20458;-69
2021/01/22 09:52:00;;;;;;;2.60;1.40;;;;;;;;;;5012065;28;20407;-77
2021/01/22 09:54:26;;;;;;;1.70;1.40;;;;;;;;;;5013581;28;20423;-77
2021/01/22 09:56:52;;;;;;;3.00;1.40;;;;;;;;;;5011069;28;20914;-71
2021/01/22 09:59:18;;;;;;;2.50;1.10;;;;;;;;;;5010798;28;20420;-71
2021/01/22 10:01:44;;;;;;;2.67;1.50;;;;;;;;;;5011030;28;20471;-72
2021/01/22 10:04:10;;;;;;;7.70;1.93;;;;;;;;;;5008790;28;20438;-72
2021/01/22 10:06:36;;;;;;;2.80;1.73;;;;;;;;;;5012108;28;20438;-72
2021/01/22 10:09:02;;;;;;;2.67;1.53;;;;;;;;;;5010711;28;20462;-72
2021/01/22 10:11:29;;;;;;;17.03;1.60;;;;;;;;;;5010912;28;20420;-72
2021/01/22 10:13:55;;;;;;;3.20;1.20;;;;;;;;;;5006459;28;20428;-74
2021/01/22 10:16:22;;;;;;;5.80;2.10;;;;;;;;;;5011522;28;20415;-75
2021/01/22 10:18:49;;;;;;;3.20;1.60;;;;;;;;;;5011423;28;20449;-75
2021/01/22 10:21:15;;;;;;;5.20;1.33;;;;;;;;;;5015690;28;20429;-76
2021/01/22 10:23:41;;;;;;;5.90;2.43;;;;;;;;;;5013699;28;20424;-76
2021/01/22 10:26:07;;;;;;;3.77;1.40;;;;;;;;;;5011711;28;20449;-76
2021/01/22 10:28:33;;;;;;;4.53;1.73;;;;;;;;;;5015422;28;20951;-75
2021/01/22 10:31:00;;;;;;;4.50;1.63;;;;;;;;;;5015546;28;20415;-73
2021/01/22 10:33:26;;;;;;;4.75;1.63;;;;;;;;;;5012406;28;20434;-77
2021/01/22 10:35:52;;;;;;;4.60;1.50;;;;;;;;;;5015073;28;20180;-71
2021/01/22 10:38:18;;;;;;;3.70;1.33;;;;;;;;;;5013444;28;20528;-71
2021/01/22 10:40:44;;;;;;;6.47;1.33;;;;;;;;;;5013040;28;20518;-76
2021/01/22 10:43:10;;;;;;;8.20;1.20;;;;;;;;;;5015057;28;20486;-72
2021/01/22 10:45:35;;;;;;;2.00;1.30;;;;;;;;;;5015495;28;20437;-72
2021/01/22 10:48:01;;;;;;;2.17;1.30;;;;;;;;;;5013988;28;20500;-71
2021/01/22 10:50:28;;;;;;;3.67;1.37;;;;;;;;;;5015201;28;20417;-72
2021/01/22 10:52:53;;;;;;;3.33;1.40;;;;;;;;;;5011194;28;20426;-75
2021/01/22 10:55:19;;;;;;;6.00;1.50;;;;;;;;;;5001559;28;20432;-73
2021/01/22 10:57:45;;;;;;;2.77;1.37;;;;;;;;;;5015118;28;20475;-73
2021/01/22 11:00:12;;;;;;;3.00;1.73;;;;;;;;;;5015408;28;20403;-73
2021/01/22 11:02:38;;;;;;;3.00;1.23;;;;;;;;;;5014552;28;20415;-73
2021/01/22 11:05:04;;;;;;;3.10;1.30;;;;;;;;;;5007568;28;20510;-73
2021/01/22 11:07:30;;;;;;;3.30;1.40;;;;;;;;;;5015438;28;20486;-70
2021/01/22 11:09:56;;;;;;;3.93;1.40;;;;;;;;;;5015984;28;20419;-70
2021/01/22 11:12:22;;;;;;;6.47;1.30;;;;;;;;;;5013624;28;20427;-70
2021/01/22 11:14:48;;;;;;;2.07;1.17;;;;;;;;;;5014787;28;20427;-70
2021/01/22 11:17:14;;;;;;;3.73;1.63;;;;;;;;;;5013756;28;20429;-70
2021/01/22 11:19:40;;;;;;;4.40;1.50;;;;;;;;;;5014700;28;20780;-71
2021/01/22 11:22:06;;;;;;;3.60;1.57;;;;;;;;;;5013725;28;20421;-70
2021/01/22 11:24:35;;;;;;;1.90;1.10;;;;;;;;;;5013678;28;20435;-71
2021/01/22 11:27:01;;;;;;;2.60;1.30;;;;;;;;;;5013074;28;20972;-71
2021/01/22 11:29:27;;;;;;;2.37;1.00;;;;;;;;;;5015407;28;20547;-72
2021/01/22 11:31:53;;;;;;;2.93;1.53;;;;;;;;;;5013968;28;20422;-71
2021/01/22 11:34:19;;;;;;;2.30;1.20;;;;;;;;;;5013451;28;20498;-70
2021/01/22 11:36:45;;;;;;;3.43;0.97;;;;;;;;;;5014295;28;20841;-69
2021/01/22 11:39:11;;;;;;;1.60;1.00;;;;;;;;;;5013367;28;20439;-70
2021/01/22 11:41:37;;;;;;;3.73;1.30;;;;;;;;;;5013236;28;20933;-70
2021/01/22 11:44:03;;;;;;;2.83;1.30;;;;;;;;;;5011797;28;20807;-70
2021/01/22 11:46:29;;;;;;;4.03;1.30;;;;;;;;;;5012727;28;20427;-70
2021/01/22 11:48:55;;;;;;;3.67;1.17;;;;;;;;;;5013113;28;21029;-71
2021/01/22 11:51:21;;;;;;;2.90;1.60;;;;;;;;;;5014338;28;20501;-70
2021/01/22 11:53:47;;;;;;;2.60;1.83;;;;;;;;;;5012466;28;20851;-71
2021/01/22 11:56:14;;;;;;;5.37;1.40;;;;;;;;;;4996908;28;20435;-71
2021/01/22 11:58:40;;;;;;;5.67;1.80;;;;;;;;;;5012271;28;20437;-71
2021/01/22 12:01:06;;;;;;;2.67;1.10;;;;;;;;;;5014163;28;20430;-71
2021/01/22 12:03:32;;;;;;;2.53;1.50;;;;;;;;;;5013151;28;20875;-71
2021/01/22 12:05:58;;;;;;;12.50;1.53;;;;;;;;;;5014068;28;20414;-73
2021/01/22 12:08:24;;;;;;;4.53;1.50;;;;;;;;;;5011172;28;20840;-71
2021/01/22 12:10:50;;;;;;;4.30;1.37;;;;;;;;;;5012399;28;20470;-71
2021/01/22 12:13:16;;;;;;;12.80;1.40;;;;;;;;;;5009608;28;20431;-71
2021/01/22 12:15:42;;;;;;;3.50;1.10;;;;;;;;;;5009621;28;20435;-71
2021/01/22 12:18:10;;;;;;;2.40;1.30;;;;;;;;;;5011826;28;20479;-71
2021/01/22 12:20:36;;;;;;;11.70;2.20;;;;;;;;;;5012791;28;20923;-70
2021/01/22 12:23:03;;;;;;;3.93;1.70;;;;;;;;;;5011414;28;21018;-71
2021/01/22 12:25:29;;;;;;;2.47;1.30;;;;;;;;;;5013090;28;20489;-72
2021/01/22 12:27:55;;;;;;;3.23;1.20;;;;;;;;;;5010712;28;20490;-71
2021/01/22 12:30:21;;;;;;;3.27;1.27;;;;;;;;;;4996863;28;20811;-71
2021/01/22 12:32:47;;;;;;;3.27;1.10;;;;;;;;;;4998028;28;20465;-70
2021/01/22 12:35:15;;;;;;;3.40;1.50;;;;;;;;;;5012317;28;20495;-71
2021/01/22 12:37:41;;;;;;;3.07;1.53;;;;;;;;;;5011479;28;20431;-71
2021/01/22 12:40:08;;;;;;;2.63;1.10;;;;;;;;;;5011975;28;20468;-71
2021/01/22 12:42:34;;;;;;;3.03;1.50;;;;;;;;;;5011868;28;20485;-70
2021/01/22 12:45:00;;;;;;;2.77;1.20;;;;;;;;;;5011236;28;20555;-71
2021/01/22 12:47:26;;;;;;;3.10;1.60;;;;;;;;;;5011264;28;20529;-71
2021/01/22 12:49:52;;;;;;;2.87;1.20;;;;;;;;;;5011131;28;20470;-72
2021/01/22 12:52:18;;;;;;;4.17;1.57;;;;;;;;;;5010579;28;20574;-70
2021/01/22 12:54:44;;;;;;;4.97;1.47;;;;;;;;;;5011603;28;20505;-72
2021/01/22 12:57:10;;;;;;;4.33;1.60;;;;;;;;;;5011637;28;20954;-70
2021/01/22 12:59:36;;;;;;;2.50;1.50;;;;;;;;;;5012020;28;20449;-71
2021/01/22 13:02:02;;;;;;;2.53;1.10;;;;;;;;;;5011053;28;20494;-70
2021/01/22 13:04:28;;;;;;;4.43;1.50;;;;;;;;;;5012046;28;20486;-70
2021/01/22 13:06:54;;;;;;;1.90;1.00;;;;;;;;;;4990930;28;614914;-71
2021/01/22 13:09:20;;;;;;;4.60;1.30;;;;;;;;;;5012234;28;20197;-71
2021/01/22 13:11:46;;;;;;;3.23;1.40;;;;;;;;;;5011439;28;20420;-71
2021/01/22 13:14:12;;;;;;;3.47;1.40;;;;;;;;;;5010106;28;20424;-71
2021/01/22 13:16:39;;;;;;;4.00;1.50;;;;;;;;;;5012678;28;20427;-71
2021/01/22 13:19:05;;;;;;;3.30;1.70;;;;;;;;;;5011589;28;20896;-71
2021/01/22 13:21:31;;;;;;;4.70;2.30;;;;;;;;;;5012498;28;20396;-71
2021/01/22 13:23:57;;;;;;;2.40;1.30;;;;;;;;;;5011350;28;20466;-71
2021/01/22 13:26:23;;;;;;;3.30;1.70;;;;;;;;;;5012826;28;20454;-71
2021/01/22 13:28:49;;;;;;;2.60;1.47;;;;;;;;;;5011364;28;20458;-70
2021/01/22 13:31:15;;;;;;;11.40;1.80;;;;;;;;;;5012582;28;20954;-71
2021/01/22 13:33:41;;;;;;;3.10;1.77;;;;;;;;;;5010774;28;20428;-72
2021/01/22 13:36:07;;;;;;;4.67;1.80;;;;;;;;;;5009807;28;20416;-70
2021/01/22 13:38:33;;;;;;;4.83;1.80;;;;;;;;;;5010732;28;20440;-71
2021/01/22 13:40:59;;;;;;;8.57;1.90;;;;;;;;;;5011719;28;20411;-70
2021/01/22 13:43:25;;;;;;;4.93;1.97;;;;;;;;;;5007315;28;20440;-70
2021/01/22 13:45:51;;;;;;;2.10;1.23;;;;;;;;;;5011718;28;20422;-71
2021/01/22 13:48:17;;;;;;;3.80;1.60;;;;;;;;;;5012318;28;20936;-72
2021/01/22 13:50:43;;;;;;;8.70;1.77;;;;;;;;;;5012827;28;20428;-72
2021/01/22 13:53:09;;;;;;;2.70;1.43;;;;;;;;;;5015043;28;20930;-71
2021/01/22 13:55:35;;;;;;;2.60;1.43;;;;;;;;;;5015277;28;20426;-71
2021/01/22 13:58:01;;;;;;;6.60;2.30;;;;;;;;;;5016083;28;20421;-72
2021/01/22 14:00:27;;;;;;;6.00;2.07;;;;;;;;;;5012228;28;20888;-72
2021/01/22 14:02:53;;;;;;;7.00;3.40;;;;;;;;;;5009101;28;20419;-72
2021/01/22 14:05:19;;;;;;;10.03;2.27;;;;;;;;;;5002879;28;20425;-72
2021/01/22 14:07:45;;;;;;;5.33;2.40;;;;;;;;;;5006002;28;20568;-73
2021/01/22 14:10:12;;;;;;;11.90;2.27;;;;;;;;;;5008715;28;20426;-72
2021/01/22 14:12:37;;;;;;;3.93;1.80;;;;;;;;;;5004791;28;20441;-73
2021/01/22 14:15:04;;;;;;;5.47;1.50;;;;;;;;;;5005399;28;20925;-72
2021/01/22 14:17:30;;;;;;;4.27;2.43;;;;;;;;;;5006574;28;20485;-73
2021/01/22 14:19:56;;;;;;;4.57;1.70;;;;;;;;;;5005740;28;20918;-73
2021/01/22 14:22:22;;;;;;;3.30;1.50;;;;;;;;;;5003178;28;20406;-72
2021/01/22 14:24:48;;;;;;;4.93;2.43;;;;;;;;;;5009003;28;20492;-72
2021/01/22 14:27:14;;;;;;;6.33;1.97;;;;;;;;;;5009805;28;20483;-72
2021/01/22 14:29:41;;;;;;;2.83;1.60;;;;;;;;;;5014303;28;20461;-72
2021/01/22 14:32:07;;;;;;;3.20;1.60;;;;;;;;;;5015419;28;20421;-72
2021/01/22 14:34:33;;;;;;;4.80;1.93;;;;;;;;;;5014816;28;20471;-72
2021/01/22 14:36:59;;;;;;;4.33;1.77;;;;;;;;;;5015252;28;20434;-72
2021/01/22 14:39:25;;;;;;;4.03;2.00;;;;;;;;;;5009877;28;20440;-72
2021/01/22 14:41:51;;;;;;;5.30;2.30;;;;;;;;;;4995542;28;20412;-72
2021/01/22 14:44:17;;;;;;;4.00;2.10;;;;;;;;;;4998367;28;20423;-72